Time;durP1;ratioP1;P1;durP2;ratioP2;P2;SDS_P1;SDS_P2;PMS_P1;PMS_P2;Temp;Humidity;BMP_temperature;BMP_pressure;BME280_temperature;BME280_humidity;BME280_pressure;Samples;Min_cycle;Max_cycle;Signal;HPM_P1;HPM_P2
2022/01/15 00:01:31;;;;;;;13.77;3.88;;;6.90;99.90;;;;;;5067079;28;20044;-57
2022/01/15 00:03:56;;;;;;;16.15;4.70;;;6.90;99.90;;;;;;5064714;28;20051;-59
2022/01/15 00:06:22;;;;;;;10.38;3.50;;;6.90;99.90;;;;;;5071874;28;20458;-57
2022/01/15 00:08:48;;;;;;;9.95;4.00;;;6.90;99.90;;;;;;5065715;28;20434;-58
2022/01/15 00:11:14;;;;;;;11.75;4.10;;;6.90;99.90;;;;;;5052614;28;20129;-59
2022/01/15 00:13:42;;;;;;;15.73;4.50;;;6.90;99.90;;;;;;5056813;23;24888;-59
2022/01/15 00:16:27;;;;;;;10.77;4.25;;;6.90;99.90;;;;;;4924845;28;20531;-59
2022/01/15 00:19:07;;;;;;;20.33;10.25;;;6.90;99.90;;;;;;4924846;28;20043;-60
2022/01/15 00:21:33;;;;;;;17.45;8.13;;;6.90;99.90;;;;;;4944991;28;20121;-59
2022/01/15 00:23:59;;;;;;;17.60;7.05;;;6.90;99.90;;;;;;4949265;28;20044;-60
2022/01/15 00:26:25;;;;;;;21.05;7.40;;;6.90;99.90;;;;;;4943597;28;20766;-60
2022/01/15 00:28:51;;;;;;;15.38;6.05;;;6.90;99.90;;;;;;4954262;28;20421;-60
2022/01/15 00:31:16;;;;;;;15.23;6.10;;;6.90;99.90;;;;;;4938007;28;20122;-60
2022/01/15 00:33:42;;;;;;;13.35;4.72;;;6.90;99.90;;;;;;4950189;28;20527;-60
2022/01/15 00:36:08;;;;;;;19.98;7.57;;;6.90;99.90;;;;;;4955785;28;20062;-60
2022/01/15 00:38:34;;;;;;;13.40;5.20;;;6.90;99.90;;;;;;4949819;28;20035;-59
2022/01/15 00:41:00;;;;;;;50.97;7.53;;;6.90;99.90;;;;;;4964336;28;20093;-59
2022/01/15 00:43:25;;;;;;;17.58;5.65;;;6.90;99.90;;;;;;4951714;28;20031;-59
2022/01/15 00:45:51;;;;;;;14.93;5.50;;;6.90;99.90;;;;;;4952987;28;20088;-60
2022/01/15 00:48:17;;;;;;;21.05;7.25;;;6.90;99.90;;;;;;4937517;28;20499;-60
2022/01/15 00:50:43;;;;;;;11.15;5.53;;;6.90;99.90;;;;;;4942175;28;20130;-60
2022/01/15 00:53:09;;;;;;;24.17;8.48;;;6.90;99.90;;;;;;4948398;28;20043;-60
2022/01/15 00:55:35;;;;;;;17.00;6.75;;;6.90;99.90;;;;;;4926695;28;20046;-60
2022/01/15 00:58:01;;;;;;;17.55;6.68;;;6.90;99.90;;;;;;4953203;28;20043;-59
2022/01/15 01:00:27;;;;;;;15.90;5.70;;;6.90;99.90;;;;;;4941317;28;20074;-59
2022/01/15 01:02:53;;;;;;;15.63;6.38;;;6.90;99.90;;;;;;4955487;28;20043;-60
2022/01/15 01:05:20;;;;;;;20.02;6.85;;;6.90;99.90;;;;;;4943317;28;20142;-59
2022/01/15 01:07:46;;;;;;;12.55;5.15;;;6.90;99.90;;;;;;4945626;28;20083;-60
2022/01/15 01:23:37;;;;;;;16.02;6.72;;;6.90;99.90;;;;;;4949255;28;20057;-60
2022/01/15 01:26:29;;;;;;;23.67;7.75;;;6.90;99.90;;;;;;4946628;28;20043;-59
2022/01/15 01:28:58;;;;;;;17.73;7.28;;;6.80;99.90;;;;;;4945597;28;20433;-59
2022/01/15 01:31:33;;;;;;;15.85;7.30;;;6.80;99.90;;;;;;4944221;28;20533;-60
2022/01/15 01:34:07;;;;;;;15.70;6.72;;;6.80;99.90;;;;;;4952484;28;20047;-60
2022/01/15 01:36:45;;;;;;;10.48;5.47;;;6.90;99.90;;;;;;4931995;28;20425;-60
2022/01/15 01:39:16;;;;;;;11.65;5.22;;;6.90;99.90;;;;;;4946757;28;20110;-60
2022/01/15 01:41:48;;;;;;;13.55;6.13;;;6.80;99.90;;;;;;4952827;28;20126;-60
2022/01/15 01:44:18;;;;;;;9.82;5.15;;;6.80;99.90;;;;;;4945376;28;20047;-59
2022/01/15 01:46:51;;;;;;;9.55;4.93;;;6.90;99.90;;;;;;4949092;28;20161;-60
2022/01/15 01:49:19;;;;;;;10.13;4.95;;;6.80;99.90;;;;;;4938877;28;20130;-60
2022/01/15 01:51:45;;;;;;;6.13;2.78;;;6.80;99.90;;;;;;4948287;28;20484;-59
2022/01/15 01:54:16;;;;;;;4.75;2.80;;;6.80;99.90;;;;;;4944394;28;20066;-60
2022/01/15 01:56:41;;;;;;;6.00;3.20;;;6.80;99.90;;;;;;4950386;28;20049;-61
2022/01/15 01:59:08;;;;;;;7.88;3.95;;;6.80;99.90;;;;;;4953085;28;20035;-59
2022/01/15 02:01:34;;;;;;;7.20;4.15;;;6.80;99.90;;;;;;4946030;28;20047;-60
2022/01/15 02:04:00;;;;;;;9.55;5.05;;;6.80;99.90;;;;;;4949647;28;20149;-59
2022/01/15 02:06:26;;;;;;;9.10;4.63;;;6.90;99.90;;;;;;4945787;28;20047;-61
2022/01/15 02:08:54;;;;;;;6.85;3.97;;;6.80;99.90;;;;;;4946939;28;20122;-60
2022/01/15 02:11:20;;;;;;;8.32;4.78;;;6.80;99.90;;;;;;4947448;28;20116;-60
2022/01/15 02:13:46;;;;;;;13.60;5.60;;;6.80;99.90;;;;;;4953907;28;20173;-60
2022/01/15 02:16:13;;;;;;;9.98;4.85;;;6.80;99.90;;;;;;4945401;28;20592;-60
2022/01/15 02:18:39;;;;;;;10.18;5.40;;;6.80;99.90;;;;;;4939491;28;20145;-60
2022/01/15 02:23:44;;;;;;;11.73;5.35;;;6.80;99.90;;;;;;4944277;28;20051;-59
2022/01/15 02:26:16;;;;;;;9.23;4.97;;;6.80;99.90;;;;;;4961927;28;20093;-59
2022/01/15 02:28:50;;;;;;;11.18;5.70;;;6.80;99.90;;;;;;4942745;28;20065;-59
2022/01/15 02:31:17;;;;;;;11.55;5.20;;;6.80;99.90;;;;;;4944510;28;20058;-60
2022/01/15 02:33:47;;;;;;;9.02;4.70;;;6.80;99.90;;;;;;4947719;28;20047;-61
2022/01/15 02:36:16;;;;;;;9.48;4.47;;;6.80;99.90;;;;;;4949445;28;21395;-60
2022/01/15 02:38:43;;;;;;;9.57;4.90;;;6.70;99.90;;;;;;4930468;28;20426;-59
2022/01/15 02:41:09;;;;;;;8.70;4.85;;;6.80;99.90;;;;;;4942501;28;20406;-59
2022/01/15 02:43:36;;;;;;;11.07;5.75;;;6.70;99.90;;;;;;4952069;28;20091;-59
2022/01/15 02:46:33;;;;;;;12.82;5.43;;;6.70;99.90;;;;;;4937061;28;20051;-60
2022/01/15 02:49:03;;;;;;;10.05;5.00;;;6.70;99.90;;;;;;4942971;28;20061;-60
2022/01/15 02:51:33;;;;;;;7.97;4.13;;;6.80;99.90;;;;;;4948916;28;20065;-62
2022/01/15 02:54:00;;;;;;;8.23;4.18;;;6.70;99.90;;;;;;4946053;28;20087;-59
2022/01/15 02:56:33;;;;;;;8.93;4.20;;;6.70;99.90;;;;;;4949253;28;20129;-59
2022/01/15 02:58:59;;;;;;;9.37;4.00;;;6.70;99.90;;;;;;4941778;28;20434;-59
2022/01/15 03:01:25;;;;;;;9.52;4.00;;;6.70;99.90;;;;;;4938345;28;20310;-60
2022/01/15 03:03:51;;;;;;;10.10;4.55;;;6.70;99.90;;;;;;4948852;28;20526;-60
2022/01/15 03:06:19;;;;;;;10.10;3.90;;;6.70;99.90;;;;;;4951337;28;20047;-60
2022/01/15 03:08:46;;;;;;;10.52;4.93;;;6.70;99.90;;;;;;4943996;28;20039;-59
2022/01/15 03:11:12;;;;;;;11.48;4.95;;;6.70;99.90;;;;;;4943158;28;20047;-60
2022/01/15 03:13:39;;;;;;;9.55;4.25;;;6.70;99.90;;;;;;4946847;28;20118;-60
2022/01/15 03:16:07;;;;;;;8.38;4.18;;;6.70;99.90;;;;;;4943548;28;20031;-60
2022/01/15 03:18:33;;;;;;;8.70;3.90;;;6.70;99.90;;;;;;4956937;28;20119;-60
2022/01/15 03:20:59;;;;;;;10.27;4.35;;;6.70;99.90;;;;;;4951324;28;20139;-59
2022/01/15 03:23:24;;;;;;;8.23;4.07;;;6.70;99.90;;;;;;4946727;28;21291;-60
2022/01/15 03:25:50;;;;;;;9.95;4.03;;;6.70;99.90;;;;;;4943994;28;20054;-60
2022/01/15 03:28:16;;;;;;;9.95;4.50;;;6.70;99.90;;;;;;4944338;28;20154;-59
2022/01/15 03:30:42;;;;;;;7.93;4.22;;;6.60;99.90;;;;;;4952801;28;20091;-60
2022/01/15 03:33:08;;;;;;;11.02;4.78;;;6.70;99.90;;;;;;4925711;28;20042;-60
2022/01/15 03:35:35;;;;;;;8.40;4.50;;;6.70;99.90;;;;;;4944801;28;20525;-60
2022/01/15 03:38:01;;;;;;;12.48;5.30;;;6.70;99.90;;;;;;4931130;28;20043;-60
2022/01/15 03:40:27;;;;;;;12.15;5.03;;;6.70;99.90;;;;;;4941276;28;20113;-61
2022/01/15 03:42:53;;;;;;;8.88;4.70;;;6.70;99.90;;;;;;4950892;28;20035;-59
2022/01/15 03:45:18;;;;;;;8.63;4.03;;;6.60;99.90;;;;;;4942310;28;20066;-60
2022/01/15 03:47:48;;;;;;;8.60;4.57;;;6.60;99.90;;;;;;4959505;28;20043;-59
2022/01/15 03:50:16;;;;;;;7.47;4.15;;;6.60;99.90;;;;;;4953019;28;20075;-60
2022/01/15 03:52:42;;;;;;;8.98;4.78;;;6.60;99.90;;;;;;4946253;28;20497;-61
2022/01/15 03:55:10;;;;;;;9.07;4.53;;;6.60;99.90;;;;;;4947269;28;20051;-60
2022/01/15 03:57:36;;;;;;;12.98;5.18;;;6.60;99.90;;;;;;4929282;28;20042;-59
2022/01/15 04:00:26;;;;;;;7.50;3.88;;;6.60;99.90;;;;;;4952908;28;20132;-60
2022/01/15 04:02:54;;;;;;;11.65;4.93;;;6.60;99.90;;;;;;4930340;28;20047;-60
2022/01/15 04:05:20;;;;;;;9.10;4.20;;;6.50;99.90;;;;;;4948121;28;20976;-60
2022/01/15 04:07:46;;;;;;;8.52;3.53;;;6.60;99.90;;;;;;4938318;28;20169;-60
2022/01/15 04:10:14;;;;;;;8.65;4.10;;;6.60;99.90;;;;;;4944124;28;20369;-60
2022/01/15 04:12:40;;;;;;;9.52;4.07;;;6.60;99.90;;;;;;4949820;28;20057;-60
2022/01/15 04:15:08;;;;;;;5.97;3.15;;;6.60;99.90;;;;;;4937087;28;20718;-59
2022/01/15 04:17:34;;;;;;;7.75;2.78;;;6.50;99.90;;;;;;4952082;28;20026;-60
2022/01/15 04:19:59;;;;;;;5.40;2.92;;;6.50;99.90;;;;;;4944563;28;20496;-59
2022/01/15 04:22:25;;;;;;;6.63;3.53;;;6.50;99.90;;;;;;4948221;28;20090;-60
2022/01/15 04:24:51;;;;;;;6.18;4.05;;;6.50;99.90;;;;;;4943391;28;20051;-60
2022/01/15 04:27:21;;;;;;;8.27;4.30;;;6.40;99.90;;;;;;4946447;28;20039;-60
2022/01/15 04:29:50;;;;;;;8.40;4.20;;;6.50;99.90;;;;;;4953914;28;20118;-59
2022/01/15 04:32:19;;;;;;;6.95;3.70;;;6.50;99.90;;;;;;4944003;28;20088;-60
2022/01/15 04:34:47;;;;;;;8.48;4.13;;;6.50;99.90;;;;;;4945895;28;20517;-61
2022/01/15 04:37:20;;;;;;;8.88;3.88;;;6.50;99.90;;;;;;4945121;28;20043;-60
2022/01/15 04:39:46;;;;;;;9.50;4.28;;;6.50;99.90;;;;;;4937839;28;20040;-60
2022/01/15 04:42:12;;;;;;;8.43;3.83;;;6.50;99.90;;;;;;4950715;28;20203;-59
2022/01/15 04:44:38;;;;;;;9.15;4.63;;;6.60;99.90;;;;;;4942351;28;20031;-59
2022/01/15 04:47:05;;;;;;;8.90;4.60;;;6.50;99.90;;;;;;4956703;28;20036;-59
2022/01/15 04:49:31;;;;;;;10.75;5.25;;;6.50;99.90;;;;;;4943426;28;20259;-60
2022/01/15 04:51:59;;;;;;;7.50;3.83;;;6.50;99.90;;;;;;4945030;28;20055;-60
2022/01/15 04:54:24;;;;;;;5.70;3.40;;;6.50;99.90;;;;;;4933904;28;20076;-60
2022/01/15 04:56:50;;;;;;;9.10;4.10;;;6.50;99.90;;;;;;4944716;28;20051;-60
2022/01/15 04:59:16;;;;;;;10.13;4.55;;;6.50;99.90;;;;;;4957135;28;20034;-60
2022/01/15 05:01:42;;;;;;;8.07;4.38;;;6.50;99.90;;;;;;4931399;28;20043;-60
2022/01/15 05:04:08;;;;;;;9.30;4.20;;;6.50;99.90;;;;;;4950586;28;20138;-59
2022/01/15 05:06:33;;;;;;;9.30;4.75;;;6.50;99.90;;;;;;4944652;28;20039;-60
2022/01/15 05:09:06;;;;;;;6.30;3.72;;;6.40;99.90;;;;;;4945815;28;20108;-60
2022/01/15 05:14:35;;;;;;;7.60;4.35;;;6.50;99.90;;;;;;4897880;28;20109;-60
2022/01/15 05:17:02;;;;;;;5.28;3.58;;;6.50;99.90;;;;;;4941723;28;20077;-60
2022/01/15 05:19:28;;;;;;;8.27;3.83;;;6.50;99.90;;;;;;4944394;28;20050;-60
2022/01/15 05:21:56;;;;;;;5.25;3.22;;;6.50;99.90;;;;;;4953989;28;20509;-60
2022/01/15 05:24:25;;;;;;;6.90;3.45;;;6.40;99.90;;;;;;4948172;28;20051;-60
2022/01/15 05:26:52;;;;;;;4.80;2.35;;;6.40;99.90;;;;;;4930363;28;20101;-59
2022/01/15 05:29:18;;;;;;;5.43;2.70;;;6.40;99.90;;;;;;4947809;28;20047;-60
2022/01/15 05:31:44;;;;;;;5.72;3.30;;;6.40;99.90;;;;;;4948056;28;20165;-60
2022/01/15 05:34:10;;;;;;;4.55;2.55;;;6.40;99.90;;;;;;4960224;28;20085;-60
2022/01/15 05:36:39;;;;;;;5.03;2.72;;;6.40;99.90;;;;;;4951049;28;20043;-59
2022/01/15 05:39:05;;;;;;;4.97;2.55;;;6.40;99.90;;;;;;4928244;28;20129;-60
2022/01/15 05:41:31;;;;;;;4.68;2.70;;;6.40;99.90;;;;;;4946633;28;20092;-60
2022/01/15 05:44:01;;;;;;;6.50;2.47;;;6.30;99.90;;;;;;4951347;28;20899;-60
2022/01/15 05:46:31;;;;;;;4.15;2.30;;;6.40;99.90;;;;;;4934597;28;20035;-60
2022/01/15 05:48:57;;;;;;;5.28;2.50;;;6.30;99.90;;;;;;4950551;28;20057;-60
2022/01/15 05:51:23;;;;;;;6.43;2.75;;;6.30;99.90;;;;;;4945350;28;20043;-59
2022/01/15 05:53:48;;;;;;;6.88;3.55;;;6.20;99.90;;;;;;4952363;28;20046;-60
2022/01/15 05:56:15;;;;;;;5.45;2.90;;;6.20;99.90;;;;;;4954770;28;20050;-59
2022/01/15 05:58:41;;;;;;;6.40;2.90;;;6.20;99.90;;;;;;4948566;28;20115;-60
2022/01/15 06:01:06;;;;;;;7.72;3.88;;;6.20;99.90;;;;;;4926500;28;20051;-60
2022/01/15 06:03:32;;;;;;;7.80;3.53;;;6.20;99.90;;;;;;4958334;28;20077;-60
2022/01/15 06:06:02;;;;;;;4.65;2.90;;;6.30;99.90;;;;;;4944661;28;20039;-59
2022/01/15 06:08:27;;;;;;;7.88;3.47;;;6.30;99.90;;;;;;4931976;28;20061;-59
2022/01/15 06:10:53;;;;;;;6.22;3.10;;;6.20;99.90;;;;;;4949540;28;20076;-59
2022/01/15 06:13:19;;;;;;;6.65;3.40;;;6.20;99.90;;;;;;4940051;28;20177;-60
2022/01/15 06:15:45;;;;;;;6.15;3.53;;;6.20;99.90;;;;;;4960403;28;20623;-60
2022/01/15 06:18:11;;;;;;;5.72;3.20;;;6.30;99.90;;;;;;4951930;28;20869;-60
2022/01/15 06:20:37;;;;;;;4.55;2.60;;;6.20;99.90;;;;;;4950460;28;20038;-59
2022/01/15 06:23:03;;;;;;;4.13;1.92;;;6.20;99.90;;;;;;4953672;28;20032;-60
2022/01/15 06:25:29;;;;;;;3.75;2.00;;;6.20;99.90;;;;;;4945192;28;20393;-59
2022/01/15 06:27:55;;;;;;;3.50;1.42;;;6.10;99.90;;;;;;4936859;28;20035;-59
2022/01/15 06:30:20;;;;;;;3.08;1.38;;;6.20;99.90;;;;;;4922499;28;20126;-59
2022/01/15 06:32:46;;;;;;;2.72;1.38;;;6.10;99.90;;;;;;4948573;28;20755;-60
2022/01/15 06:35:13;;;;;;;2.70;1.23;;;6.10;99.90;;;;;;4944408;28;20237;-60
2022/01/15 06:37:39;;;;;;;2.90;1.58;;;6.10;99.90;;;;;;4950821;28;20078;-60
2022/01/15 06:40:06;;;;;;;2.92;1.42;;;6.10;99.90;;;;;;4942908;28;20119;-60
2022/01/15 06:42:32;;;;;;;2.10;1.00;;;6.10;99.90;;;;;;4936207;28;20045;-59
2022/01/15 06:44:58;;;;;;;2.45;1.20;;;6.00;99.90;;;;;;4984094;22;20069;-59
2022/01/15 06:47:25;;;;;;;2.95;1.35;;;6.00;99.90;;;;;;4986368;27;20140;-57
2022/01/15 06:49:51;;;;;;;3.15;1.30;;;5.90;99.90;;;;;;4992903;28;20049;-58
2022/01/15 06:52:16;;;;;;;2.53;1.23;;;5.90;99.90;;;;;;4954642;28;20449;-59
2022/01/15 06:54:42;;;;;;;2.75;1.50;;;5.90;99.90;;;;;;4984112;28;20045;-59
2022/01/15 06:57:08;;;;;;;2.72;1.02;;;5.90;99.90;;;;;;4970982;28;20053;-54
2022/01/15 06:59:33;;;;;;;4.05;1.60;;;5.90;99.90;;;;;;4975753;28;20041;-55
2022/01/15 07:01:59;;;;;;;4.18;1.30;;;5.90;99.90;;;;;;4986007;28;20120;-58
2022/01/15 07:04:25;;;;;;;4.18;1.77;;;6.00;99.90;;;;;;4971655;28;20041;-57
2022/01/15 07:06:51;;;;;;;3.53;2.15;;;5.90;99.90;;;;;;4971135;28;20053;-57
2022/01/15 07:09:16;;;;;;;3.42;1.90;;;5.90;99.90;;;;;;4973272;28;20208;-58
2022/01/15 07:11:42;;;;;;;3.92;2.08;;;5.90;99.90;;;;;;4965352;28;20038;-57
2022/01/15 07:14:08;;;;;;;4.20;2.30;;;5.80;99.90;;;;;;4966704;28;20180;-58
2022/01/15 07:16:34;;;;;;;4.28;2.13;;;5.80;99.90;;;;;;4960848;28;20200;-58
2022/01/15 07:19:01;;;;;;;4.40;2.53;;;5.80;99.90;;;;;;4983236;28;20087;-57
2022/01/15 07:21:26;;;;;;;4.22;2.60;;;5.80;99.90;;;;;;4964226;28;20138;-58
2022/01/15 07:23:52;;;;;;;5.05;2.58;;;5.80;99.90;;;;;;4975409;28;20469;-57
2022/01/15 07:26:18;;;;;;;6.18;3.08;;;5.90;99.90;;;;;;4962120;28;20044;-58
2022/01/15 07:28:43;;;;;;;4.25;2.38;;;5.80;99.90;;;;;;4967151;28;20042;-58
2022/01/15 07:31:09;;;;;;;5.55;2.90;;;5.80;99.90;;;;;;4987418;28;20824;-59
2022/01/15 07:33:35;;;;;;;5.43;3.08;;;5.80;99.90;;;;;;4984961;28;20030;-58
2022/01/15 07:36:01;;;;;;;5.82;2.50;;;5.80;99.90;;;;;;4960354;28;20649;-57
2022/01/15 07:38:27;;;;;;;5.18;2.80;;;5.80;99.90;;;;;;4961126;28;20501;-57
2022/01/15 07:40:55;;;;;;;5.57;2.92;;;5.80;99.90;;;;;;4980028;28;20038;-58
2022/01/15 07:43:21;;;;;;;6.03;2.90;;;5.80;99.90;;;;;;4966026;28;20048;-57
2022/01/15 07:45:47;;;;;;;4.80;2.47;;;5.70;99.90;;;;;;4974194;28;20404;-59
2022/01/15 07:48:13;;;;;;;6.43;3.03;;;5.80;99.90;;;;;;4976290;28;20034;-58
2022/01/15 07:50:39;;;;;;;4.80;2.63;;;5.80;99.90;;;;;;4966842;28;20342;-57
2022/01/15 07:53:04;;;;;;;5.72;2.60;;;5.80;99.90;;;;;;4974999;28;20522;-58
2022/01/15 07:55:30;;;;;;;5.43;2.75;;;5.80;99.90;;;;;;4962114;28;20520;-57
2022/01/15 07:57:56;;;;;;;7.30;3.05;;;5.80;99.90;;;;;;4957878;28;21239;-57
2022/01/15 08:00:21;;;;;;;6.10;3.03;;;5.80;99.90;;;;;;4940201;28;20042;-57
2022/01/15 08:02:47;;;;;;;4.78;2.67;;;5.80;99.90;;;;;;4964618;28;20402;-57
2022/01/15 08:05:13;;;;;;;6.60;3.25;;;5.80;99.90;;;;;;4978396;28;20124;-57
2022/01/15 08:07:42;;;;;;;6.57;2.80;;;5.80;99.90;;;;;;4963460;28;20485;-57
2022/01/15 08:10:09;;;;;;;5.13;2.95;;;5.80;99.90;;;;;;4962564;28;20050;-58
2022/01/15 08:12:44;;;;;;;6.45;2.90;;;5.80;99.90;;;;;;4962282;28;20057;-57
2022/01/15 08:15:11;;;;;;;7.72;3.90;;;5.80;99.90;;;;;;4950070;28;20359;-58
2022/01/15 08:17:36;;;;;;;7.55;3.90;;;5.80;99.90;;;;;;4968066;28;20046;-59
2022/01/15 08:20:03;;;;;;;8.27;4.13;;;5.80;99.90;;;;;;4960692;28;21112;-57
2022/01/15 08:22:29;;;;;;;9.80;3.72;;;5.80;99.90;;;;;;4972670;28;20496;-55
2022/01/15 08:24:55;;;;;;;7.97;4.32;;;5.80;99.90;;;;;;4964198;28;20053;-57
2022/01/15 08:27:20;;;;;;;10.60;4.72;;;5.80;99.90;;;;;;4963635;28;20189;-56
2022/01/15 08:29:46;;;;;;;8.43;4.20;;;5.90;99.90;;;;;;4955422;28;20497;-58
2022/01/15 08:32:12;;;;;;;7.25;3.92;;;5.80;99.90;;;;;;4972011;28;20080;-56
2022/01/15 08:34:38;;;;;;;5.47;2.65;;;5.80;99.90;;;;;;4968261;28;20046;-55
2022/01/15 08:37:04;;;;;;;6.88;3.45;;;5.70;99.90;;;;;;4974471;28;20046;-58
2022/01/15 08:39:31;;;;;;;6.63;3.53;;;5.70;99.90;;;;;;4979323;28;20049;-57
2022/01/15 08:41:56;;;;;;;7.38;3.45;;;5.70;99.90;;;;;;4955321;28;20054;-58
2022/01/15 08:44:25;;;;;;;8.13;4.30;;;5.70;99.90;;;;;;4969245;28;20522;-57
2022/01/15 08:46:51;;;;;;;6.00;3.47;;;5.70;99.90;;;;;;4986241;28;20037;-57
2022/01/15 08:49:19;;;;;;;7.47;3.80;;;5.70;99.90;;;;;;4956943;28;20046;-56
2022/01/15 08:51:45;;;;;;;6.93;3.47;;;5.70;99.90;;;;;;4963883;28;20046;-58
2022/01/15 08:54:10;;;;;;;6.07;3.92;;;5.80;99.90;;;;;;4957895;28;20049;-57
2022/01/15 08:56:36;;;;;;;7.45;3.60;;;5.80;99.90;;;;;;4957703;28;20480;-56
2022/01/15 08:59:03;;;;;;;7.80;3.65;;;5.80;99.90;;;;;;4964480;28;20042;-56
2022/01/15 09:01:29;;;;;;;9.20;3.72;;;5.80;99.90;;;;;;4965724;28;20050;-56
2022/01/15 09:03:57;;;;;;;8.98;4.07;;;5.80;99.90;;;;;;4960213;28;20191;-54
2022/01/15 09:06:23;;;;;;;9.50;4.45;;;5.80;99.90;;;;;;4989028;28;20038;-57
2022/01/15 09:08:49;;;;;;;8.63;3.80;;;5.80;99.90;;;;;;4971148;28;20045;-57
2022/01/15 09:11:15;;;;;;;7.20;3.50;;;5.80;99.90;;;;;;4963149;28;20046;-57
2022/01/15 09:13:41;;;;;;;9.70;3.90;;;5.70;99.90;;;;;;4980750;28;20046;-57
2022/01/15 09:16:07;;;;;;;8.98;3.90;;;5.70;99.90;;;;;;4952653;28;21345;-58
2022/01/15 09:18:34;;;;;;;7.97;4.25;;;5.80;99.90;;;;;;4950059;28;20046;-57
2022/01/15 09:21:01;;;;;;;8.90;4.25;;;5.70;99.90;;;;;;4953461;28;20046;-58
2022/01/15 09:23:27;;;;;;;10.88;5.05;;;5.70;99.90;;;;;;4977527;28;20232;-58
2022/01/15 09:25:53;;;;;;;10.15;5.38;;;5.70;99.90;;;;;;4974653;28;20035;-56
2022/01/15 09:31:03;;;;;;;8.85;4.80;;;5.70;99.90;;;;;;4975814;28;20042;-58
2022/01/15 09:33:29;;;;;;;10.20;5.20;;;5.80;99.90;;;;;;4976962;28;20045;-57
2022/01/15 09:35:55;;;;;;;8.75;4.88;;;5.70;99.90;;;;;;4994553;28;20038;-57
2022/01/15 09:38:21;;;;;;;8.93;5.10;;;5.70;99.90;;;;;;4985598;28;20046;-57
2022/01/15 09:40:47;;;;;;;9.05;5.00;;;5.80;99.90;;;;;;4975270;28;20288;-56
2022/01/15 09:43:15;;;;;;;9.48;4.72;;;5.80;99.90;;;;;;4978809;28;20042;-57
2022/01/15 09:45:42;;;;;;;9.07;4.57;;;5.80;99.90;;;;;;4976414;28;20065;-57
2022/01/15 09:48:08;;;;;;;10.25;4.63;;;5.70;99.90;;;;;;4994325;28;20057;-56
2022/01/15 09:50:37;;;;;;;9.40;5.40;;;5.70;99.90;;;;;;4968495;28;20054;-57
2022/01/15 09:53:03;;;;;;;7.80;4.47;;;5.70;99.90;;;;;;4962373;28;20062;-59
2022/01/15 09:55:29;;;;;;;9.35;5.40;;;5.70;99.90;;;;;;4971787;28;20095;-58
2022/01/15 09:57:55;;;;;;;9.60;5.03;;;5.70;99.90;;;;;;4959117;28;20034;-58
2022/01/15 10:00:24;;;;;;;8.68;4.70;;;5.70;99.90;;;;;;4989968;28;21531;-57
2022/01/15 10:02:51;;;;;;;7.72;4.72;;;5.70;99.90;;;;;;4986452;28;20221;-57
2022/01/15 10:05:17;;;;;;;10.68;5.35;;;5.70;99.90;;;;;;4987786;28;20046;-56
2022/01/15 10:07:59;;;;;;;9.65;5.55;;;5.70;99.90;;;;;;4954424;28;20038;-55
2022/01/15 10:10:26;;;;;;;10.95;5.07;;;5.70;99.90;;;;;;4981654;28;20052;-57
2022/01/15 10:12:52;;;;;;;8.75;4.85;;;5.70;99.90;;;;;;4967464;28;20038;-57
2022/01/15 10:15:18;;;;;;;16.85;5.22;;;5.70;99.90;;;;;;4973893;28;20037;-57
2022/01/15 10:17:44;;;;;;;11.27;5.72;;;5.80;99.90;;;;;;4990884;28;20034;-57
2022/01/15 10:20:15;;;;;;;11.88;5.70;;;5.60;99.90;;;;;;5040888;28;20041;-57
2022/01/15 10:22:43;;;;;;;13.73;7.40;;;5.60;99.90;;;;;;4963305;28;20060;-57
2022/01/15 10:25:15;;;;;;;16.73;9.00;;;5.60;99.90;;;;;;4950958;28;20119;-56
2022/01/15 10:27:44;;;;;;;13.63;7.32;;;5.60;99.90;;;;;;4987453;28;20104;-57
2022/01/15 10:30:25;;;;;;;17.63;8.73;;;5.60;99.90;;;;;;4981973;28;20045;-58
2022/01/15 10:32:56;;;;;;;19.30;10.00;;;5.60;99.90;;;;;;4963762;28;20273;-57
2022/01/15 10:35:22;;;;;;;9.98;5.68;;;5.60;99.90;;;;;;4983368;28;20070;-58
2022/01/15 10:37:50;;;;;;;9.13;4.50;;;5.60;99.90;;;;;;4987057;28;20495;-57
2022/01/15 10:40:17;;;;;;;18.17;9.07;;;5.60;99.90;;;;;;4987242;28;20169;-57
2022/01/15 10:42:55;;;;;;;16.48;7.70;;;5.60;99.90;;;;;;4977840;28;20089;-56
2022/01/15 10:45:21;;;;;;;19.90;8.23;;;5.60;99.90;;;;;;4985588;28;20159;-56
2022/01/15 10:47:49;;;;;;;17.38;9.80;;;5.60;99.90;;;;;;4990550;28;20046;-57
2022/01/15 10:50:27;;;;;;;19.65;8.35;;;5.60;99.90;;;;;;4985982;28;20050;-57
2022/01/15 10:52:54;;;;;;;16.38;7.78;;;5.50;99.90;;;;;;4983835;28;20397;-57
2022/01/15 10:55:27;;;;;;;23.98;12.70;;;5.60;99.90;;;;;;4965589;28;20050;-56
2022/01/15 10:58:11;;;;;;;26.55;12.43;;;5.60;99.90;;;;;;4975440;28;20042;-57
2022/01/15 11:00:37;;;;;;;21.52;10.88;;;5.60;99.90;;;;;;4974598;28;20049;-53
2022/01/15 11:03:06;;;;;;;25.50;11.23;;;5.50;99.90;;;;;;4983971;28;20543;-56
2022/01/15 11:05:37;;;;;;;32.50;15.65;;;5.60;99.90;;;;;;4968822;28;20300;-57
2022/01/15 11:08:15;;;;;;;44.00;22.40;;;5.60;99.90;;;;;;4981000;28;20080;-55
2022/01/15 11:10:55;;;;;;;32.60;15.65;;;5.60;99.90;;;;;;4949748;28;20412;-56
2022/01/15 11:13:27;;;;;;;26.95;10.85;;;5.60;99.90;;;;;;4976046;28;20068;-57
2022/01/15 11:15:59;;;;;;;33.33;14.75;;;5.60;99.90;;;;;;4967919;28;20547;-56
2022/01/15 11:18:28;;;;;;;36.95;15.13;;;5.60;99.90;;;;;;4976504;28;20438;-56
2022/01/15 11:20:57;;;;;;;25.13;12.50;;;5.60;99.90;;;;;;4970045;28;20115;-57
2022/01/15 11:23:25;;;;;;;23.38;10.40;;;5.50;99.90;;;;;;4970169;28;20047;-57
2022/01/15 11:25:52;;;;;;;18.60;9.55;;;5.60;99.90;;;;;;4973619;28;20103;-56
2022/01/15 11:28:21;;;;;;;21.20;10.68;;;5.60;99.90;;;;;;4985464;28;20639;-57
2022/01/15 11:30:49;;;;;;;20.13;9.70;;;5.60;99.90;;;;;;4967869;28;20515;-56
2022/01/15 11:33:20;;;;;;;22.10;10.77;;;5.50;99.90;;;;;;4987336;28;20053;-54
2022/01/15 11:35:46;;;;;;;22.60;10.10;;;5.50;99.90;;;;;;4987642;28;20048;-56
2022/01/15 11:38:44;;;;;;;20.35;10.52;;;5.40;99.90;;;;;;4987230;28;20040;-58
2022/01/15 11:41:22;;;;;;;23.23;11.07;;;5.50;99.90;;;;;;4974019;28;20038;-58
2022/01/15 11:43:59;;;;;;;25.10;10.95;;;5.50;99.90;;;;;;4970380;28;20451;-57
2022/01/15 11:46:28;;;;;;;27.48;12.88;;;5.50;99.90;;;;;;4973851;28;20060;-57
2022/01/15 11:49:28;;;;;;;23.67;10.63;;;5.50;99.90;;;;;;4985362;28;20042;-54
2022/01/15 11:52:06;;;;;;;25.20;11.57;;;5.50;99.90;;;;;;4967463;28;20186;-55
2022/01/15 11:54:32;;;;;;;23.75;11.25;;;5.50;99.90;;;;;;4967773;28;20042;-56
2022/01/15 11:57:02;;;;;;;34.20;13.05;;;5.50;99.90;;;;;;4983917;28;20035;-56
2022/01/15 11:59:31;;;;;;;29.70;11.63;;;5.40;99.90;;;;;;5007696;28;20038;-56
2022/01/15 12:02:01;;;;;;;41.95;14.05;;;5.40;99.90;;;;;;4969968;28;20038;-56
2022/01/15 12:04:33;;;;;;;33.70;13.30;;;5.40;99.90;;;;;;4970143;28;20050;-57
2022/01/15 12:07:05;;;;;;;32.03;13.15;;;5.40;99.90;;;;;;4966823;28;20470;-53
2022/01/15 12:09:43;;;;;;;26.48;12.68;;;5.40;99.90;;;;;;4967833;28;20180;-56
2022/01/15 12:12:18;;;;;;;34.33;14.57;;;5.40;99.90;;;;;;4994629;28;20089;-56
2022/01/15 12:15:00;;;;;;;34.58;14.00;;;5.40;99.90;;;;;;4955870;28;20177;-57
2022/01/15 12:17:27;;;;;;;31.63;12.85;;;5.30;99.90;;;;;;4976075;28;20501;-57
2022/01/15 12:19:54;;;;;;;35.03;13.55;;;5.30;99.90;;;;;;4968946;28;20461;-56
2022/01/15 12:22:45;;;;;;;24.63;12.98;;;5.30;99.90;;;;;;4957028;28;20081;-59
2022/01/15 12:25:17;;;;;;;22.67;11.48;;;5.30;99.90;;;;;;4984614;28;20170;-56
2022/01/15 12:27:55;;;;;;;21.23;11.00;;;5.40;99.90;;;;;;4986485;28;20596;-56
2022/01/15 12:30:23;;;;;;;25.05;11.98;;;5.30;99.90;;;;;;4969529;28;20254;-57
2022/01/15 12:32:51;;;;;;;21.02;11.88;;;5.40;99.90;;;;;;4967147;28;20049;-56
2022/01/15 12:35:22;;;;;;;23.52;12.65;;;5.40;99.90;;;;;;4986380;28;20038;-54
2022/01/15 12:38:05;;;;;;;29.27;13.20;;;5.30;99.90;;;;;;4969595;28;20038;-54
2022/01/15 12:40:43;;;;;;;26.02;13.27;;;5.30;99.90;;;;;;4984184;28;20088;-55
2022/01/15 12:43:31;;;;;;;21.83;12.30;;;5.40;99.90;;;;;;4984846;28;20393;-57
2022/01/15 12:46:11;;;;;;;23.90;11.60;;;5.40;99.90;;;;;;4984267;23;20753;-65
2022/01/15 12:48:40;;;;;;;21.60;11.45;;;5.30;99.90;;;;;;4973794;28;20045;-65
2022/01/15 12:51:08;;;;;;;22.88;11.88;;;5.40;99.90;;;;;;4990025;28;20042;-64
2022/01/15 12:53:37;;;;;;;21.10;11.20;;;5.40;99.90;;;;;;4979328;28;20912;-65
2022/01/15 12:56:11;;;;;;;23.80;11.55;;;5.40;99.90;;;;;;4971676;28;20041;-64
2022/01/15 12:58:36;;;;;;;22.75;11.40;;;5.40;99.90;;;;;;4986480;28;20333;-65
2022/01/15 13:01:03;;;;;;;24.35;12.23;;;5.40;99.90;;;;;;4987574;28;20386;-64
2022/01/15 13:03:30;;;;;;;28.45;13.73;;;5.40;99.90;;;;;;4977689;28;20054;-64
2022/01/15 13:06:01;;;;;;;26.48;12.38;;;5.40;99.90;;;;;;4981931;28;20503;-65
2022/01/15 13:08:29;;;;;;;31.15;14.23;;;5.40;99.90;;;;;;4975394;28;20077;-64
2022/01/15 13:11:02;;;;;;;25.13;13.73;;;5.30;99.90;;;;;;4970483;28;20497;-65
2022/01/15 13:13:33;;;;;;;31.52;14.50;;;5.40;99.90;;;;;;4980240;28;20098;-65
2022/01/15 13:16:07;;;;;;;32.05;15.70;;;5.40;99.90;;;;;;4992466;28;20516;-64
2022/01/15 13:18:42;;;;;;;29.02;16.70;;;5.40;99.90;;;;;;4966302;28;20047;-66